Buoy 51523

sailwx.info

Track history (hours):
 
Tides and Currents Weather Stations Pressure Air Temp Water Temp Dewpoint Dewpoint Depression Visibility Wind Speed Wind Dir Waves Ship Positions

Drifting buoy 51523

Last reported at 2016-May-01 13:00 UTC. Time now 2016-May-01 17:25 UTC.
Position N 14°50' E 145°27'.

Water temperature 28.2 ° C

Date/timePositionNaut miles runAvg speedWind from/ knotsBaromVisibWave heightAir tempDewpointWater temp
2016-May-01 13:00N 14°50' E 145°27'1 1.1 28.2
2016-May-01 12:15N 14°50' E 145°28'0 0.2 28.1
2016-May-01 11:30N 14°50' E 145°28'0 0.5 28.1
2016-May-01 11:15N 14°50' E 145°28'2 2.0 28.1
2016-May-01 10:30N 14°51' E 145°29'0 0.2 28.1
2016-May-01 09:00N 14°51' E 145°29'0 0.0 28.1
2016-May-01 08:45N 14°51' E 145°29'0 0.1 28.1
2016-May-01 08:15N 14°51' E 145°29'1 4.2 28.1
2016-May-01 08:00N 14°51' E 145°30'0 0.5 28.1
2016-May-01 07:30N 14°51' E 145°30'0 0.0 28.1
2016-May-01 07:15N 14°51' E 145°30'1 0.7 28.1
2016-May-01 06:30N 14°51' E 145°30'1 1.1 28.1
2016-May-01 06:00N 14°51' E 145°31'1 0.5 28.1
2016-May-01 04:15N 14°50' E 145°32'3 0.8 28.4
2016-May-01 01:00N 14°51' E 145°34'0 0.1 28.1
2016-May-01 00:15N 14°51' E 145°34'1 0.8 28.1
2016-Apr-30 23:15N 14°51' E 145°35'0 0.0 28.0
2016-Apr-30 22:45N 14°51' E 145°35'0 0.0 28.0
2016-Apr-30 22:30N 14°51' E 145°35'1 0.7 28.0
2016-Apr-30 21:45N 14°51' E 145°35'0 0.6 28.0
2016-Apr-30 21:00N 14°50' E 145°35'0 1.2 28.0
2016-Apr-30 20:45N 14°50' E 145°36'0 1.2 28.0
2016-Apr-30 20:30N 14°50' E 145°35'0 1.2 28.0
2016-Apr-30 20:15N 14°50' E 145°36'1 2.6 28.0
2016-Apr-30 20:00N 14°50' E 145°36'0 0.0 28.0
2016-Apr-30 19:30N 14°50' E 145°36'2 3.3 28.0
2016-Apr-30 19:00N 14°49' E 145°38'0 0.0 28.0
2016-Apr-30 17:15N 14°49' E 145°38'0 0.2 28.0
2016-Apr-30 17:00N 14°49' E 145°38'5 3.4 28.1
2016-Apr-30 15:30N 14°49' E 145°43'0 0.0 28.1
2016-Apr-30 15:15N 14°49' E 145°43'0 0.0 28.1
2016-Apr-30 12:30N 14°49' E 145°43'1 0.9 28.1
2016-Apr-30 11:45N 14°49' E 145°44'1 0.8 28.1
2016-Apr-30 11:00N 14°49' E 145°44'0 0.0 28.1
2016-Apr-30 10:45N 14°49' E 145°44'0 0.0 28.1
2016-Apr-30 10:00N 14°49' E 145°44'0 0.0 28.2
2016-Apr-30 09:45N 14°49' E 145°44'1 5.6 28.2
2016-Apr-30 09:30N 14°49' E 145°46'0 0.0 28.2
2016-Apr-30 09:15N 14°49' E 145°46'0 1.5 28.2
2016-Apr-30 09:00N 14°50' E 145°45'0 0.7 28.2
2016-Apr-30 08:30N 14°50' E 145°46'0 0.0 28.3
2016-Apr-30 08:00N 14°50' E 145°46'0 0.0 28.3
2016-Apr-30 07:30N 14°50' E 145°46'0 1.2 28.4
2016-Apr-30 07:15N 14°50' E 145°45'0 0.0 28.4
2016-Apr-30 07:00N 14°50' E 145°45'1 0.8 28.4
2016-Apr-30 06:15N 14°49' E 145°46'0 0.0 28.4
2016-Apr-30 06:00N 14°49' E 145°46'3 1.8 28.4
2016-Apr-30 04:30N 14°49' E 145°48'0 0.0 28.4
2016-Apr-30 04:15N 14°49' E 145°48'0 0.0 28.5
2016-Apr-30 01:30N 14°49' E 145°48'0 0.0 28.3
2016-Apr-30 01:15N 14°49' E 145°48'0 0.0 28.2
2016-Apr-30 00:45N 14°49' E 145°48'1 4.1 28.2
2016-Apr-30 00:30N 14°49' E 145°49'0 0.0 28.1
2016-Apr-29 23:45N 14°49' E 145°49'0 0.0 28.0
2016-Apr-29 23:30N 14°49' E 145°49'0 0.0 28.0
2016-Apr-29 23:00N 14°49' E 145°49'0 1.6 28.0
2016-Apr-29 22:45N 14°49' E 145°49'0 0.0 28.0
2016-Apr-29 21:30N 14°49' E 145°49'1 3.1 28.0
2016-Apr-29 21:15N 14°50' E 145°49'0 0.1 28.0
2016-Apr-29 20:00N 14°50' E 145°49'1 2.7 28.0
2016-Apr-29 19:45N 14°50' E 145°50'1 4.5 28.0
2016-Apr-29 19:30N 14°50' E 145°49'0 0.1 28.0
2016-Apr-29 17:15N 14°50' E 145°49'1 0.3 28.0
2016-Apr-29 15:45N 14°49' E 145°50'0 0.0 28.1
2016-Apr-29 15:30N 14°49' E 145°50'2 0.9 28.1
2016-Apr-29 13:00N 14°48' E 145°52'0 0.0 28.1
2016-Apr-29 12:45N 14°48' E 145°52'0 0.7 28.1
2016-Apr-29 12:00N 14°49' E 145°52'2 1.1 28.1
2016-Apr-29 10:30N 14°49' E 145°54'0 0.1 28.2
2016-Apr-29 09:15N 14°49' E 145°54'1 3.5 28.2
2016-Apr-29 09:00N 14°50' E 145°55'0 0.0 28.2
2016-Apr-29 07:45N 14°50' E 145°55'0 0.2 28.3
2016-Apr-29 07:30N 14°50' E 145°55'0 0.0 28.3
2016-Apr-29 07:15N 14°50' E 145°55'1 1.3 28.3
2016-Apr-29 06:45N 14°50' E 145°55'0 0.0 28.4
2016-Apr-29 04:45N 14°50' E 145°55'2 6.5 28.5
2016-Apr-29 04:30N 14°50' E 145°57'0 0.0 28.5
2016-Apr-29 03:00N 14°50' E 145°57'1 0.6 28.3
2016-Apr-29 01:00N 14°50' E 145°58'0 0.0 28.1
2016-Apr-29 00:45N 14°50' E 145°58'0 0.0 28.1
2016-Apr-29 00:00N 14°50' E 145°58'1 1.6 27.9
2016-Apr-28 23:15N 14°51' E 145°59'0 0.0 27.9
2016-Apr-28 20:30N 14°51' E 145°59'1 3.7 27.8
2016-Apr-28 20:15N 14°52' E 145°59'0 0.0 27.8
2016-Apr-28 20:00N 14°52' E 145°59'0 0.0 27.8
2016-Apr-28 18:30N 14°52' E 145°59'0 0.1 27.8
2016-Apr-28 17:30N 14°52' E 145°59'0 0.0 27.8
2016-Apr-28 17:15N 14°52' E 145°59'0 0.3 27.8
2016-Apr-28 15:45N 14°52' E 145°59'1 0.3 27.8
2016-Apr-28 11:30N 14°52' E 145°60'1 0.8 28.1
2016-Apr-28 10:45N 14°52' E 146°00'0 0.0 28.1
2016-Apr-28 10:00N 14°52' E 146°00'0 0.0 28.1
2016-Apr-28 09:45N 14°52' E 146°00'1 0.5 28.2
2016-Apr-28 08:00N 14°52' E 146°01'0 0.0 28.3
2016-Apr-28 07:45N 14°52' E 146°01'0 0.0 28.3
2016-Apr-28 05:00N 14°52' E 146°01'2 1.0 28.4
2016-Apr-28 03:15N 14°50' E 146°02'0 0.0 28.4
2016-Apr-28 03:00N 14°50' E 146°02'0 0.2 28.4
2016-Apr-28 01:15N 14°50' E 146°02'0 0.0 28.1
2016-Apr-28 00:30N 14°50' E 146°02'0 0.0 28.0
2016-Apr-28 00:15N 14°50' E 146°02'1 2.7 27.9
2016-Apr-27 23:45N 14°50' E 146°04'0 0.0 27.9
2016-Apr-27 23:30N 14°50' E 146°04'0 0.2 27.9
2016-Apr-27 22:45N 14°50' E 146°04'0 0.2 27.7
2016-Apr-27 20:45N 14°51' E 146°04'1 3.9 27.7
2016-Apr-27 20:30N 14°51' E 146°05'0 0.3 27.7
2016-Apr-27 19:00N 14°52' E 146°05'0 0.0 27.7
2016-Apr-27 18:45N 14°52' E 146°05'1 0.6 27.7
2016-Apr-27 17:45N 14°51' E 146°04'0 0.0 27.7
2016-Apr-27 17:30N 14°51' E 146°04'0 0.3 27.7
2016-Apr-27 16:00N 14°51' E 146°05'0 0.0 27.7
2016-Apr-27 15:45N 14°51' E 146°05'1 0.5 27.7
2016-Apr-27 12:45N 14°51' E 146°06'0 0.1 27.8
2016-Apr-27 12:00N 14°51' E 146°06'0 0.0 27.8
2016-Apr-27 11:45N 14°51' E 146°06'1 2.8 27.8
2016-Apr-27 11:15N 14°51' E 146°08'0 0.0 27.9
2016-Apr-27 11:00N 14°51' E 146°08'0 0.0 27.9
2016-Apr-27 10:15N 14°51' E 146°08'1 1.4 27.9
2016-Apr-27 09:30N 14°52' E 146°08'0 0.0 27.9
2016-Apr-27 08:15N 14°52' E 146°08'0 1.0 28.0
2016-Apr-27 08:00N 14°53' E 146°08'1 2.2 28.1
2016-Apr-27 07:45N 14°53' E 146°08'0 0.0 28.1
2016-Apr-27 06:30N 14°53' E 146°08'0 0.0 28.1
2016-Apr-27 06:15N 14°53' E 146°08'1 0.4 28.2
2016-Apr-27 05:00N 14°53' E 146°08'1 0.5 28.2
2016-Apr-27 03:30N 14°53' E 146°09'0 0.0 28.2
2016-Apr-27 03:15N 14°53' E 146°09'3 0.9 28.1
2016-Apr-27 00:00N 14°54' E 146°12'0 0.0 27.7
2016-Apr-26 23:45N 14°54' E 146°12'0 0.0 27.7
2016-Apr-26 23:00N 14°54' E 146°12'1 0.3 27.7
2016-Apr-26 21:15N 14°54' E 146°13'0 1.5 27.7
2016-Apr-26 21:00N 14°55' E 146°13'1 0.4 27.7
2016-Apr-26 18:00N 14°56' E 146°13'0 0.5 27.7
2016-Apr-26 17:45N 14°56' E 146°13'0 0.0 27.7
2016-Apr-26 16:15N 14°56' E 146°13'1 5.9 27.7
2016-Apr-26 16:00N 14°55' E 146°14'1 0.3 27.7
2016-Apr-26 12:15N 14°55' E 146°15'0 0.0 27.8
2016-Apr-26 11:30N 14°55' E 146°15'1 0.8 27.8
2016-Apr-26 10:45N 14°56' E 146°15'0 0.0 27.8
2016-Apr-26 10:30N 14°56' E 146°15'0 0.1 27.8
2016-Apr-26 08:45N 14°56' E 146°15'0 1.8 27.8
2016-Apr-26 08:30N 14°56' E 146°15'0 0.2 27.9
2016-Apr-26 08:15N 14°56' E 146°15'0 0.0 27.9
2016-Apr-26 08:00N 14°56' E 146°15'0 0.0 27.9
2016-Apr-26 07:00N 14°56' E 146°15'0 0.7 27.9
2016-Apr-26 06:30N 14°56' E 146°15'1 0.9 27.9
2016-Apr-26 05:15N 14°55' E 146°16'0 0.0 27.9
2016-Apr-26 03:30N 14°55' E 146°16'3 1.0 27.9
2016-Apr-26 01:00N 14°53' E 146°18'0 0.1 27.7
2016-Apr-26 00:15N 14°53' E 146°18'2 2.6 27.7
2016-Apr-25 23:30N 14°53' E 146°20'0 0.0 27.7
2016-Apr-25 23:15N 14°53' E 146°20'1 1.5 27.7
2016-Apr-25 22:45N 14°53' E 146°19'1 0.8 27.7
2016-Apr-25 21:30N 14°52' E 146°20'1 1.6 27.7
2016-Apr-25 21:00N 14°52' E 146°21'0 0.2 27.7
2016-Apr-25 20:00N 14°52' E 146°21'0 0.0 27.7
2016-Apr-25 19:45N 14°52' E 146°21'0 1.9 27.7
2016-Apr-25 19:30N 14°52' E 146°21'0 0.0 27.7
2016-Apr-25 19:15N 14°52' E 146°21'1 0.8 27.7
2016-Apr-25 18:00N 14°52' E 146°22'1 0.9 27.7
2016-Apr-25 16:30N 14°51' E 146°23'2 8.5 27.7
2016-Apr-25 16:15N 14°51' E 146°25'1 0.2 27.7
2016-Apr-25 12:45N 14°51' E 146°26'0 0.0 27.7
2016-Apr-25 12:30N 14°51' E 146°26'1 0.9 27.7
2016-Apr-25 11:45N 14°51' E 146°27'0 0.3 27.7
2016-Apr-25 11:00N 14°51' E 146°27'0 1.0 27.7
2016-Apr-25 10:45N 14°51' E 146°27'0 0.5 27.7
2016-Apr-25 10:15N 14°51' E 146°27'0 1.5 27.7
2016-Apr-25 10:00N 14°52' E 146°27'0 0.4 27.7
2016-Apr-25 09:00N 14°52' E 146°27'0 0.0 27.8
2016-Apr-25 08:45N 14°52' E 146°27'0 0.8 27.8
2016-Apr-25 08:15N 14°52' E 146°27'0 0.1 27.8
2016-Apr-25 07:30N 14°52' E 146°27'0 0.0 27.9
2016-Apr-25 07:15N 14°52' E 146°27'0 0.5 27.9
2016-Apr-25 06:45N 14°52' E 146°27'1 0.6 27.9
2016-Apr-25 05:30N 14°52' E 146°28'0 0.0 27.9
2016-Apr-25 05:15N 14°52' E 146°28'2 1.0 27.9
2016-Apr-25 03:45N 14°52' E 146°30'2 0.8 27.8
2016-Apr-25 00:45N 14°52' E 146°32'1 2.3 27.7
2016-Apr-25 00:30N 14°52' E 146°33'0 0.0 27.7
2016-Apr-24 23:45N 14°52' E 146°33'0 0.0 27.7
2016-Apr-24 23:00N 14°52' E 146°33'0 0.0 27.7
2016-Apr-24 22:45N 14°52' E 146°33'0 0.1 27.7
2016-Apr-24 21:15N 14°52' E 146°33'0 0.0 27.7
2016-Apr-24 21:00N 14°52' E 146°33'0 0.8 27.6
2016-Apr-24 20:30N 14°53' E 146°33'0 1.7 27.6
2016-Apr-24 20:15N 14°52' E 146°33'0 0.0 27.6
2016-Apr-24 20:00N 14°52' E 146°33'0 0.7 27.6
2016-Apr-24 19:45N 14°52' E 146°33'0 1.0 27.6
2016-Apr-24 19:30N 14°52' E 146°33'0 0.0 27.6
2016-Apr-24 19:00N 14°52' E 146°33'1 1.3 27.7
2016-Apr-24 18:15N 14°52' E 146°34'0 0.0 27.7
2016-Apr-24 16:45N 14°52' E 146°34'2 8.5 27.7
2016-Apr-24 16:30N 14°52' E 146°36'0 0.0 27.7
2016-Apr-24 13:00N 14°52' E 146°36'1 0.9 27.7
2016-Apr-24 12:15N 14°52' E 146°37'0 0.0 27.7
2016-Apr-24 12:00N 14°52' E 146°37'0 0.5 27.7
2016-Apr-24 11:15N 14°52' E 146°37'1 1.3 27.7
2016-Apr-24 10:30N 14°53' E 146°37'0 0.0 27.7
2016-Apr-24 10:15N 14°53' E 146°37'0 0.1 27.7
2016-Apr-24 09:30N 14°53' E 146°37'0 0.0 27.7
2016-Apr-24 09:15N 14°53' E 146°37'1 1.1 27.7
2016-Apr-24 08:45N 14°53' E 146°37'1 3.5 27.7
2016-Apr-24 08:30N 14°52' E 146°38'0 0.0 27.7
2016-Apr-24 07:45N 14°52' E 146°38'0 0.1 27.8
2016-Apr-24 07:00N 14°52' E 146°38'0 0.0 27.8
2016-Apr-24 06:45N 14°52' E 146°38'1 1.2 27.8
2016-Apr-24 05:45N 14°51' E 146°39'1 5.9 27.8
2016-Apr-24 05:30N 14°51' E 146°40'0 0.0 27.8
2016-Apr-24 04:00N 14°51' E 146°40'0 0.0 27.8
2016-Apr-24 03:45N 14°51' E 146°40'3 1.0 27.8
2016-Apr-24 01:00N 14°51' E 146°43'0 0.0 27.7
2016-Apr-24 00:00N 14°51' E 146°43'0 0.5 27.7
2016-Apr-23 23:30N 14°51' E 146°42'0 0.0 27.6
2016-Apr-23 21:30N 14°51' E 146°42'0 0.0 27.6
2016-Apr-23 21:15N 14°51' E 146°42'1 2.8 27.6
2016-Apr-23 21:00N 14°51' E 146°43'0 1.2 27.6
2016-Apr-23 20:45N 14°51' E 146°43'0 0.0 27.6
2016-Apr-23 20:30N 14°51' E 146°43'1 0.7 27.6
2016-Apr-23 19:45N 14°51' E 146°44'0 0.7 27.6
2016-Apr-23 19:30N 14°51' E 146°44'3 5.1 27.6
2016-Apr-23 19:00N 14°49' E 146°46'0 0.0 27.6
2016-Apr-23 18:30N 14°49' E 146°46'0 0.0 27.6
2016-Apr-23 18:15N 14°49' E 146°46'2 1.6 27.6
2016-Apr-23 16:45N 14°49' E 146°49'0 0.0 27.6
2016-Apr-23 16:30N 14°49' E 146°49'0 0.1 27.6
2016-Apr-23 12:30N 14°49' E 146°49'1 0.9 27.7
2016-Apr-23 11:45N 14°49' E 146°50'0 0.0 27.7
2016-Apr-23 11:30N 14°49' E 146°50'1 1.2 27.7
2016-Apr-23 11:00N 14°50' E 146°50'0 0.0 27.7
2016-Apr-23 10:45N 14°50' E 146°50'0 0.2 27.7
2016-Apr-23 08:45N 14°50' E 146°50'0 0.4 27.8
2016-Apr-23 08:15N 14°50' E 146°50'0 0.8 27.8
2016-Apr-23 08:00N 14°49' E 146°50'0 0.0 27.8
2016-Apr-23 07:15N 14°49' E 146°50'0 0.0 27.9
2016-Apr-23 07:00N 14°49' E 146°50'2 1.7 27.9
2016-Apr-23 05:45N 14°48' E 146°52'0 0.0 27.9
2016-Apr-23 04:15N 14°48' E 146°52'0 0.0 27.8
2016-Apr-23 04:00N 14°48' E 146°52'3 0.8 27.9
2016-Apr-23 00:30N 14°48' E 146°55'0 0.2 27.7
2016-Apr-22 23:45N 14°48' E 146°55'0 0.0 27.6
2016-Apr-22 23:30N 14°48' E 146°55'0 0.5 27.6
2016-Apr-22 22:45N 14°48' E 146°55'0 0.3 27.6
2016-Apr-22 21:30N 14°48' E 146°55'1 1.1 27.6
2016-Apr-22 21:00N 14°47' E 146°56'0 0.4 27.6
2016-Apr-22 20:00N 14°47' E 146°56'0 0.0 27.6
2016-Apr-22 19:45N 14°47' E 146°56'0 0.2 27.6
2016-Apr-22 19:30N 14°48' E 146°56'0 0.0 27.6
2016-Apr-22 19:15N 14°48' E 146°56'3 1.2 27.6
2016-Apr-22 17:00N 14°46' E 146°58'0 0.0 27.6
2016-Apr-22 16:45N 14°46' E 146°58'0 0.0 27.6
2016-Apr-22 12:45N 14°46' E 146°58'0 0.6 27.6
2016-Apr-22 12:00N 14°46' E 146°59'0 1.6 27.6
2016-Apr-22 11:45N 14°46' E 146°58'2 3.2 27.6
2016-Apr-22 11:15N 14°46' E 146°60'1 3.1 27.6
2016-Apr-22 11:00N 14°46' E 146°59'1 1.8 27.6
2016-Apr-22 10:15N 14°46' E 147°00'1 0.4 27.6
2016-Apr-22 09:00N 14°46' E 147°01'0 0.0 27.7
2016-Apr-22 08:45N 14°46' E 147°01'1 4.0 27.7
2016-Apr-22 08:30N 14°46' E 147°02'0 0.0 27.7
2016-Apr-22 07:30N 14°46' E 147°02'0 0.0 27.7
2016-Apr-22 07:15N 14°46' E 147°02'0 1.2 27.7
2016-Apr-22 07:00N 14°46' E 147°02'2 0.9 27.7
2016-Apr-22 04:30N 14°46' E 147°04'0 0.0 27.7
2016-Apr-22 04:15N 14°46' E 147°04'4 1.0 27.7
2016-Apr-22 00:00N 14°47' E 147°08'2 0.6 27.6
2016-Apr-21 21:30N 14°47' E 147°10'1 0.9 27.6
2016-Apr-21 20:30N 14°47' E 147°11'0 0.0 27.6
2016-Apr-21 20:15N 14°47' E 147°11'0 0.8 27.6
2016-Apr-21 20:00N 14°46' E 147°11'1 5.8 27.6
2016-Apr-21 19:45N 14°46' E 147°12'0 0.0 27.6
2016-Apr-21 18:45N 14°46' E 147°12'1 0.4 27.6
2016-Apr-21 17:00N 14°47' E 147°12'1 0.8 27.6
2016-Apr-21 15:30N 14°47' E 147°14'0 0.0 27.6
2016-Apr-21 15:15N 14°47' E 147°14'   27.6
Track history (hours):
 
Tides and Currents Weather Stations Pressure Air Temp Water Temp Dewpoint Dewpoint Depression Visibility Wind Speed Wind Dir Waves Ship Positions

Drifting buoy 51523

Last reported at 2016-May-01 13:00 UTC. Time now 2016-May-01 17:25 UTC.
Position N 14°50' E 145°27'.

Water temperature 28.2 ° C

Date/timePositionNaut miles runAvg speedWind from/ knotsBaromVisibWave heightAir tempDewpointWater temp
2016-May-01 13:00N 14°50' E 145°27'1 1.1 28.2
2016-May-01 12:15N 14°50' E 145°28'0 0.2 28.1
2016-May-01 11:30N 14°50' E 145°28'0 0.5 28.1
2016-May-01 11:15N 14°50' E 145°28'2 2.0 28.1
2016-May-01 10:30N 14°51' E 145°29'0 0.2 28.1
2016-May-01 09:00N 14°51' E 145°29'0 0.0 28.1
2016-May-01 08:45N 14°51' E 145°29'0 0.1 28.1
2016-May-01 08:15N 14°51' E 145°29'1 4.2 28.1
2016-May-01 08:00N 14°51' E 145°30'0 0.5 28.1
2016-May-01 07:30N 14°51' E 145°30'0 0.0 28.1
2016-May-01 07:15N 14°51' E 145°30'1 0.7 28.1
2016-May-01 06:30N 14°51' E 145°30'1 1.1 28.1
2016-May-01 06:00N 14°51' E 145°31'1 0.5 28.1
2016-May-01 04:15N 14°50' E 145°32'3 0.8 28.4
2016-May-01 01:00N 14°51' E 145°34'0 0.1 28.1
2016-May-01 00:15N 14°51' E 145°34'1 0.8 28.1
2016-Apr-30 23:15N 14°51' E 145°35'0 0.0 28.0
2016-Apr-30 22:45N 14°51' E 145°35'0 0.0 28.0
2016-Apr-30 22:30N 14°51' E 145°35'1 0.7 28.0
2016-Apr-30 21:45N 14°51' E 145°35'0 0.6 28.0
2016-Apr-30 21:00N 14°50' E 145°35'0 1.2 28.0
2016-Apr-30 20:45N 14°50' E 145°36'0 1.2 28.0
2016-Apr-30 20:30N 14°50' E 145°35'0 1.2 28.0
2016-Apr-30 20:15N 14°50' E 145°36'1 2.6 28.0
2016-Apr-30 20:00N 14°50' E 145°36'0 0.0 28.0
2016-Apr-30 19:30N 14°50' E 145°36'2 3.3 28.0
2016-Apr-30 19:00N 14°49' E 145°38'0 0.0 28.0
2016-Apr-30 17:15N 14°49' E 145°38'0 0.2 28.0
2016-Apr-30 17:00N 14°49' E 145°38'5 3.4 28.1
2016-Apr-30 15:30N 14°49' E 145°43'0 0.0 28.1
2016-Apr-30 15:15N 14°49' E 145°43'0 0.0 28.1
2016-Apr-30 12:30N 14°49' E 145°43'1 0.9 28.1
2016-Apr-30 11:45N 14°49' E 145°44'1 0.8 28.1
2016-Apr-30 11:00N 14°49' E 145°44'0 0.0 28.1
2016-Apr-30 10:45N 14°49' E 145°44'0 0.0 28.1
2016-Apr-30 10:00N 14°49' E 145°44'0 0.0 28.2
2016-Apr-30 09:45N 14°49' E 145°44'1 5.6 28.2
2016-Apr-30 09:30N 14°49' E 145°46'0 0.0 28.2
2016-Apr-30 09:15N 14°49' E 145°46'0 1.5 28.2
2016-Apr-30 09:00N 14°50' E 145°45'0 0.7 28.2
2016-Apr-30 08:30N 14°50' E 145°46'0 0.0 28.3
2016-Apr-30 08:00N 14°50' E 145°46'0 0.0 28.3
2016-Apr-30 07:30N 14°50' E 145°46'0 1.2 28.4
2016-Apr-30 07:15N 14°50' E 145°45'0 0.0 28.4
2016-Apr-30 07:00N 14°50' E 145°45'1 0.8 28.4
2016-Apr-30 06:15N 14°49' E 145°46'0 0.0 28.4
2016-Apr-30 06:00N 14°49' E 145°46'3 1.8 28.4
2016-Apr-30 04:30N 14°49' E 145°48'0 0.0 28.4
2016-Apr-30 04:15N 14°49' E 145°48'0 0.0 28.5
2016-Apr-30 01:30N 14°49' E 145°48'0 0.0 28.3
2016-Apr-30 01:15N 14°49' E 145°48'0 0.0 28.2
2016-Apr-30 00:45N 14°49' E 145°48'1 4.1 28.2
2016-Apr-30 00:30N 14°49' E 145°49'0 0.0 28.1
2016-Apr-29 23:45N 14°49' E 145°49'0 0.0 28.0
2016-Apr-29 23:30N 14°49' E 145°49'0 0.0 28.0
2016-Apr-29 23:00N 14°49' E 145°49'0 1.6 28.0
2016-Apr-29 22:45N 14°49' E 145°49'0 0.0 28.0
2016-Apr-29 21:30N 14°49' E 145°49'1 3.1 28.0
2016-Apr-29 21:15N 14°50' E 145°49'0 0.1 28.0
2016-Apr-29 20:00N 14°50' E 145°49'1 2.7 28.0
2016-Apr-29 19:45N 14°50' E 145°50'1 4.5 28.0
2016-Apr-29 19:30N 14°50' E 145°49'0 0.1 28.0
2016-Apr-29 17:15N 14°50' E 145°49'1 0.3 28.0
2016-Apr-29 15:45N 14°49' E 145°50'0 0.0 28.1
2016-Apr-29 15:30N 14°49' E 145°50'2 0.9 28.1
2016-Apr-29 13:00N 14°48' E 145°52'0 0.0 28.1
2016-Apr-29 12:45N 14°48' E 145°52'0 0.7 28.1
2016-Apr-29 12:00N 14°49' E 145°52'2 1.1 28.1
2016-Apr-29 10:30N 14°49' E 145°54'0 0.1 28.2
2016-Apr-29 09:15N 14°49' E 145°54'1 3.5 28.2
2016-Apr-29 09:00N 14°50' E 145°55'0 0.0 28.2
2016-Apr-29 07:45N 14°50' E 145°55'0 0.2 28.3
2016-Apr-29 07:30N 14°50' E 145°55'0 0.0 28.3
2016-Apr-29 07:15N 14°50' E 145°55'1 1.3 28.3
2016-Apr-29 06:45N 14°50' E 145°55'0 0.0 28.4
2016-Apr-29 04:45N 14°50' E 145°55'2 6.5 28.5
2016-Apr-29 04:30N 14°50' E 145°57'0 0.0 28.5
2016-Apr-29 03:00N 14°50' E 145°57'1 0.6 28.3
2016-Apr-29 01:00N 14°50' E 145°58'0 0.0 28.1
2016-Apr-29 00:45N 14°50' E 145°58'0 0.0 28.1
2016-Apr-29 00:00N 14°50' E 145°58'1 1.6 27.9
2016-Apr-28 23:15N 14°51' E 145°59'0 0.0 27.9
2016-Apr-28 20:30N 14°51' E 145°59'1 3.7 27.8
2016-Apr-28 20:15N 14°52' E 145°59'0 0.0 27.8
2016-Apr-28 20:00N 14°52' E 145°59'0 0.0 27.8
2016-Apr-28 18:30N 14°52' E 145°59'0 0.1 27.8
2016-Apr-28 17:30N 14°52' E 145°59'0 0.0 27.8
2016-Apr-28 17:15N 14°52' E 145°59'0 0.3 27.8
2016-Apr-28 15:45N 14°52' E 145°59'1 0.3 27.8
2016-Apr-28 11:30N 14°52' E 145°60'1 0.8 28.1
2016-Apr-28 10:45N 14°52' E 146°00'0 0.0 28.1
2016-Apr-28 10:00N 14°52' E 146°00'0 0.0 28.1
2016-Apr-28 09:45N 14°52' E 146°00'1 0.5 28.2
2016-Apr-28 08:00N 14°52' E 146°01'0 0.0 28.3
2016-Apr-28 07:45N 14°52' E 146°01'0 0.0 28.3
2016-Apr-28 05:00N 14°52' E 146°01'2 1.0 28.4
2016-Apr-28 03:15N 14°50' E 146°02'0 0.0 28.4
2016-Apr-28 03:00N 14°50' E 146°02'0 0.2 28.4
2016-Apr-28 01:15N 14°50' E 146°02'0 0.0 28.1
2016-Apr-28 00:30N 14°50' E 146°02'0 0.0 28.0
2016-Apr-28 00:15N 14°50' E 146°02'1 2.7 27.9
2016-Apr-27 23:45N 14°50' E 146°04'0 0.0 27.9
2016-Apr-27 23:30N 14°50' E 146°04'0 0.2 27.9
2016-Apr-27 22:45N 14°50' E 146°04'0 0.2 27.7
2016-Apr-27 20:45N 14°51' E 146°04'1 3.9 27.7
2016-Apr-27 20:30N 14°51' E 146°05'0 0.3 27.7
2016-Apr-27 19:00N 14°52' E 146°05'0 0.0 27.7
2016-Apr-27 18:45N 14°52' E 146°05'1 0.6 27.7
2016-Apr-27 17:45N 14°51' E 146°04'0 0.0 27.7
2016-Apr-27 17:30N 14°51' E 146°04'0 0.3 27.7
2016-Apr-27 16:00N 14°51' E 146°05'0 0.0 27.7
2016-Apr-27 15:45N 14°51' E 146°05'1 0.5 27.7
2016-Apr-27 12:45N 14°51' E 146°06'0 0.1 27.8
2016-Apr-27 12:00N 14°51' E 146°06'0 0.0 27.8
2016-Apr-27 11:45N 14°51' E 146°06'1 2.8 27.8
2016-Apr-27 11:15N 14°51' E 146°08'0 0.0 27.9
2016-Apr-27 11:00N 14°51' E 146°08'0 0.0 27.9
2016-Apr-27 10:15N 14°51' E 146°08'1 1.4 27.9
2016-Apr-27 09:30N 14°52' E 146°08'0 0.0 27.9
2016-Apr-27 08:15N 14°52' E 146°08'0 1.0 28.0
2016-Apr-27 08:00N 14°53' E 146°08'1 2.2 28.1
2016-Apr-27 07:45N 14°53' E 146°08'0 0.0 28.1
2016-Apr-27 06:30N 14°53' E 146°08'0 0.0 28.1
2016-Apr-27 06:15N 14°53' E 146°08'1 0.4 28.2
2016-Apr-27 05:00N 14°53' E 146°08'1 0.5 28.2
2016-Apr-27 03:30N 14°53' E 146°09'0 0.0 28.2
2016-Apr-27 03:15N 14°53' E 146°09'3 0.9 28.1
2016-Apr-27 00:00N 14°54' E 146°12'0 0.0 27.7
2016-Apr-26 23:45N 14°54' E 146°12'0 0.0 27.7
2016-Apr-26 23:00N 14°54' E 146°12'1 0.3 27.7
2016-Apr-26 21:15N 14°54' E 146°13'0 1.5 27.7
2016-Apr-26 21:00N 14°55' E 146°13'1 0.4 27.7
2016-Apr-26 18:00N 14°56' E 146°13'0 0.5 27.7
2016-Apr-26 17:45N 14°56' E 146°13'0 0.0 27.7
2016-Apr-26 16:15N 14°56' E 146°13'1 5.9 27.7
2016-Apr-26 16:00N 14°55' E 146°14'1 0.3 27.7
2016-Apr-26 12:15N 14°55' E 146°15'0 0.0 27.8
2016-Apr-26 11:30N 14°55' E 146°15'1 0.8 27.8
2016-Apr-26 10:45N 14°56' E 146°15'0 0.0 27.8
2016-Apr-26 10:30N 14°56' E 146°15'0 0.1 27.8
2016-Apr-26 08:45N 14°56' E 146°15'0 1.8 27.8
2016-Apr-26 08:30N 14°56' E 146°15'0 0.2 27.9
2016-Apr-26 08:15N 14°56' E 146°15'0 0.0 27.9
2016-Apr-26 08:00N 14°56' E 146°15'0 0.0 27.9
2016-Apr-26 07:00N 14°56' E 146°15'0 0.7 27.9
2016-Apr-26 06:30N 14°56' E 146°15'1 0.9 27.9
2016-Apr-26 05:15N 14°55' E 146°16'0 0.0 27.9
2016-Apr-26 03:30N 14°55' E 146°16'3 1.0 27.9
2016-Apr-26 01:00N 14°53' E 146°18'0 0.1 27.7
2016-Apr-26 00:15N 14°53' E 146°18'2 2.6 27.7
2016-Apr-25 23:30N 14°53' E 146°20'0 0.0 27.7
2016-Apr-25 23:15N 14°53' E 146°20'1 1.5 27.7
2016-Apr-25 22:45N 14°53' E 146°19'1 0.8 27.7
2016-Apr-25 21:30N 14°52' E 146°20'1 1.6 27.7
2016-Apr-25 21:00N 14°52' E 146°21'0 0.2 27.7
2016-Apr-25 20:00N 14°52' E 146°21'0 0.0 27.7
2016-Apr-25 19:45N 14°52' E 146°21'0 1.9 27.7
2016-Apr-25 19:30N 14°52' E 146°21'0 0.0 27.7
2016-Apr-25 19:15N 14°52' E 146°21'1 0.8 27.7
2016-Apr-25 18:00N 14°52' E 146°22'1 0.9 27.7
2016-Apr-25 16:30N 14°51' E 146°23'2 8.5 27.7
2016-Apr-25 16:15N 14°51' E 146°25'1 0.2 27.7
2016-Apr-25 12:45N 14°51' E 146°26'0 0.0 27.7
2016-Apr-25 12:30N 14°51' E 146°26'1 0.9 27.7
2016-Apr-25 11:45N 14°51' E 146°27'0 0.3 27.7
2016-Apr-25 11:00N 14°51' E 146°27'0 1.0 27.7
2016-Apr-25 10:45N 14°51' E 146°27'0 0.5 27.7
2016-Apr-25 10:15N 14°51' E 146°27'0 1.5 27.7
2016-Apr-25 10:00N 14°52' E 146°27'0 0.4 27.7
2016-Apr-25 09:00N 14°52' E 146°27'0 0.0 27.8
2016-Apr-25 08:45N 14°52' E 146°27'0 0.8 27.8
2016-Apr-25 08:15N 14°52' E 146°27'0 0.1 27.8
2016-Apr-25 07:30N 14°52' E 146°27'0 0.0 27.9
2016-Apr-25 07:15N 14°52' E 146°27'0 0.5 27.9
2016-Apr-25 06:45N 14°52' E 146°27'1 0.6 27.9
2016-Apr-25 05:30N 14°52' E 146°28'0 0.0 27.9
2016-Apr-25 05:15N 14°52' E 146°28'2 1.0 27.9
2016-Apr-25 03:45N 14°52' E 146°30'2 0.8 27.8
2016-Apr-25 00:45N 14°52' E 146°32'1 2.3 27.7
2016-Apr-25 00:30N 14°52' E 146°33'0 0.0 27.7
2016-Apr-24 23:45N 14°52' E 146°33'0 0.0 27.7
2016-Apr-24 23:00N 14°52' E 146°33'0 0.0 27.7
2016-Apr-24 22:45N 14°52' E 146°33'0 0.1 27.7
2016-Apr-24 21:15N 14°52' E 146°33'0 0.0 27.7
2016-Apr-24 21:00N 14°52' E 146°33'0 0.8 27.6
2016-Apr-24 20:30N 14°53' E 146°33'0 1.7 27.6
2016-Apr-24 20:15N 14°52' E 146°33'0 0.0 27.6
2016-Apr-24 20:00N 14°52' E 146°33'0 0.7 27.6
2016-Apr-24 19:45N 14°52' E 146°33'0 1.0 27.6
2016-Apr-24 19:30N 14°52' E 146°33'0 0.0 27.6
2016-Apr-24 19:00N 14°52' E 146°33'1 1.3 27.7
2016-Apr-24 18:15N 14°52' E 146°34'0 0.0 27.7
2016-Apr-24 16:45N 14°52' E 146°34'2 8.5 27.7
2016-Apr-24 16:30N 14°52' E 146°36'0 0.0 27.7
2016-Apr-24 13:00N 14°52' E 146°36'1 0.9 27.7
2016-Apr-24 12:15N 14°52' E 146°37'0 0.0 27.7
2016-Apr-24 12:00N 14°52' E 146°37'0 0.5 27.7
2016-Apr-24 11:15N 14°52' E 146°37'1 1.3 27.7
2016-Apr-24 10:30N 14°53' E 146°37'0 0.0 27.7
2016-Apr-24 10:15N 14°53' E 146°37'0 0.1 27.7
2016-Apr-24 09:30N 14°53' E 146°37'0 0.0 27.7
2016-Apr-24 09:15N 14°53' E 146°37'1 1.1 27.7
2016-Apr-24 08:45N 14°53' E 146°37'1 3.5 27.7
2016-Apr-24 08:30N 14°52' E 146°38'0 0.0 27.7
2016-Apr-24 07:45N 14°52' E 146°38'0 0.1 27.8
2016-Apr-24 07:00N 14°52' E 146°38'0 0.0 27.8
2016-Apr-24 06:45N 14°52' E 146°38'1 1.2 27.8
2016-Apr-24 05:45N 14°51' E 146°39'1 5.9 27.8
2016-Apr-24 05:30N 14°51' E 146°40'0 0.0 27.8
2016-Apr-24 04:00N 14°51' E 146°40'0 0.0 27.8
2016-Apr-24 03:45N 14°51' E 146°40'3 1.0 27.8
2016-Apr-24 01:00N 14°51' E 146°43'0 0.0 27.7
2016-Apr-24 00:00N 14°51' E 146°43'0 0.5 27.7
2016-Apr-23 23:30N 14°51' E 146°42'0 0.0 27.6
2016-Apr-23 21:30N 14°51' E 146°42'0 0.0 27.6
2016-Apr-23 21:15N 14°51' E 146°42'1 2.8 27.6
2016-Apr-23 21:00N 14°51' E 146°43'0 1.2 27.6
2016-Apr-23 20:45N 14°51' E 146°43'0 0.0 27.6
2016-Apr-23 20:30N 14°51' E 146°43'1 0.7 27.6
2016-Apr-23 19:45N 14°51' E 146°44'0 0.7 27.6
2016-Apr-23 19:30N 14°51' E 146°44'3 5.1 27.6
2016-Apr-23 19:00N 14°49' E 146°46'0 0.0 27.6
2016-Apr-23 18:30N 14°49' E 146°46'0 0.0 27.6
2016-Apr-23 18:15N 14°49' E 146°46'2 1.6 27.6
2016-Apr-23 16:45N 14°49' E 146°49'0 0.0 27.6
2016-Apr-23 16:30N 14°49' E 146°49'0 0.1 27.6
2016-Apr-23 12:30N 14°49' E 146°49'1 0.9 27.7
2016-Apr-23 11:45N 14°49' E 146°50'0 0.0 27.7
2016-Apr-23 11:30N 14°49' E 146°50'1 1.2 27.7
2016-Apr-23 11:00N 14°50' E 146°50'0 0.0 27.7
2016-Apr-23 10:45N 14°50' E 146°50'0 0.2 27.7
2016-Apr-23 08:45N 14°50' E 146°50'0 0.4 27.8
2016-Apr-23 08:15N 14°50' E 146°50'0 0.8 27.8
2016-Apr-23 08:00N 14°49' E 146°50'0 0.0 27.8
2016-Apr-23 07:15N 14°49' E 146°50'0 0.0 27.9
2016-Apr-23 07:00N 14°49' E 146°50'2 1.7 27.9
2016-Apr-23 05:45N 14°48' E 146°52'0 0.0 27.9
2016-Apr-23 04:15N 14°48' E 146°52'0 0.0 27.8
2016-Apr-23 04:00N 14°48' E 146°52'3 0.8 27.9
2016-Apr-23 00:30N 14°48' E 146°55'0 0.2 27.7
2016-Apr-22 23:45N 14°48' E 146°55'0 0.0 27.6
2016-Apr-22 23:30N 14°48' E 146°55'0 0.5 27.6
2016-Apr-22 22:45N 14°48' E 146°55'0 0.3 27.6
2016-Apr-22 21:30N 14°48' E 146°55'1 1.1 27.6
2016-Apr-22 21:00N 14°47' E 146°56'0 0.4 27.6
2016-Apr-22 20:00N 14°47' E 146°56'0 0.0 27.6
2016-Apr-22 19:45N 14°47' E 146°56'0 0.2 27.6
2016-Apr-22 19:30N 14°48' E 146°56'0 0.0 27.6
2016-Apr-22 19:15N 14°48' E 146°56'3 1.2 27.6
2016-Apr-22 17:00N 14°46' E 146°58'0 0.0 27.6
2016-Apr-22 16:45N 14°46' E 146°58'0 0.0 27.6
2016-Apr-22 12:45N 14°46' E 146°58'0 0.6 27.6
2016-Apr-22 12:00N 14°46' E 146°59'0 1.6 27.6
2016-Apr-22 11:45N 14°46' E 146°58'2 3.2 27.6
2016-Apr-22 11:15N 14°46' E 146°60'1 3.1 27.6
2016-Apr-22 11:00N 14°46' E 146°59'1 1.8 27.6
2016-Apr-22 10:15N 14°46' E 147°00'1 0.4 27.6
2016-Apr-22 09:00N 14°46' E 147°01'0 0.0 27.7
2016-Apr-22 08:45N 14°46' E 147°01'1 4.0 27.7
2016-Apr-22 08:30N 14°46' E 147°02'0 0.0 27.7
2016-Apr-22 07:30N 14°46' E 147°02'0 0.0 27.7
2016-Apr-22 07:15N 14°46' E 147°02'0 1.2 27.7
2016-Apr-22 07:00N 14°46' E 147°02'2 0.9 27.7
2016-Apr-22 04:30N 14°46' E 147°04'0 0.0 27.7
2016-Apr-22 04:15N 14°46' E 147°04'4 1.0 27.7
2016-Apr-22 00:00N 14°47' E 147°08'2 0.6 27.6
2016-Apr-21 21:30N 14°47' E 147°10'1 0.9 27.6
2016-Apr-21 20:30N 14°47' E 147°11'0 0.0 27.6
2016-Apr-21 20:15N 14°47' E 147°11'0 0.8 27.6
2016-Apr-21 20:00N 14°46' E 147°11'1 5.8 27.6
2016-Apr-21 19:45N 14°46' E 147°12'0 0.0 27.6
2016-Apr-21 18:45N 14°46' E 147°12'1 0.4 27.6
2016-Apr-21 17:00N 14°47' E 147°12'1 0.8 27.6
2016-Apr-21 15:30N 14°47' E 147°14'0 0.0 27.6
2016-Apr-21 15:15N 14°47' E 147°14'   27.6

Dump ship's entire track history